Flight Track Log - Related Links

Times and Time Zones

All times are in EDT time to prevent confusion due to time zone crossing. See the UAL822 flight status page for this flight to view local times or setup timezone preferences in your user account.

Time Position Orientation Groundspeed Altitude Reporting Facility
EDT Latitude Longitude Course Direction KTS MPH feet Rate Location/Type
Thu 11:00:32 AM 32.9167 -97.0333 356° North 145 167 1,200  Level Dallas / Fort Worth TRACON
Thu 11:01:27 AM 32.9500 -97.0333 360° North 197 227 2,700 2,305 Climbing Dallas / Fort Worth TRACON
Thu 11:03:00 AM 32.8592 -96.8000 North  Level FlightAware Approximate
Thu 11:03:03 AM 33.0414 -97.0269 North 361 415 7,000  Level Fort Worth Center
Thu 11:04:00 AM 32.9802 -96.8000 North  Level FlightAware Approximate
Thu 11:04:03 AM 33.1208 -97.0042 14° North 259 298 10,400  Level Fort Worth Center
Thu 11:05:00 AM 33.1012 -96.8029 356° North  Level FlightAware Approximate
Thu 11:05:03 AM 33.1936 -96.9617 26° Northeast 290 334 12,000  Level Fort Worth Center
Thu 11:06:03 AM 33.2917 -96.9114 23° Northeast 333 383 15,100 2,750 Climbing Fort Worth Center
Thu 11:07:03 AM 33.3853 -96.8611 24° Northeast 356 410 17,500 2,150 Climbing Fort Worth Center
Thu 11:08:03 AM 33.4686 -96.8108 27° Northeast 362 417 19,400 2,100 Climbing Fort Worth Center
Thu 11:09:03 AM 33.5747 -96.7428 28° Northeast 377 434 21,700 1,950 Climbing Fort Worth Center
Thu 11:10:03 AM 33.6661 -96.6847 28° Northeast 396 456 23,300 1,800 Climbing Fort Worth Center
Thu 11:11:03 AM 33.7764 -96.6139 28° Northeast 406 467 25,300 1,800 Climbing Fort Worth Center
Thu 11:12:03 AM 33.8803 -96.5503 27° Northeast 407 468 26,900 1,550 Climbing Fort Worth Center
Thu 11:13:03 AM 33.9864 -96.4817 28° Northeast 407 468 28,400 1,400 Climbing Fort Worth Center
Thu 11:14:03 AM 34.0922 -96.4053 31° Northeast 421 484 29,700 1,200 Climbing Fort Worth Center
Thu 11:15:03 AM 34.2000 -96.3161 34° Northeast 444 511 30,800 1,100 Climbing Fort Worth Center
Thu 11:16:03 AM 34.3056 -96.2294 34° Northeast 455 524 31,900 1,300 Climbing Fort Worth Center
Thu 11:17:03 AM 34.4153 -96.1397 34° Northeast 468 539 33,400 1,240 Climbing Fort Worth Center
Thu 11:18:04 AM 34.5269 -96.0472 34° Northeast 473 544 34,400 900 Climbing Fort Worth Center
Thu 11:19:03 AM 34.6364 -95.9597 33° Northeast 473 544 35,200 908 Climbing Fort Worth Center
Thu 11:20:03 AM 34.7458 -95.8669 35° Northeast 473 544 36,200 900 Climbing Fort Worth Center
Thu 11:21:03 AM 34.8575 -95.7739 34° Northeast 478 550 37,000 400 Climbing Fort Worth Center
Thu 11:22:03 AM 34.9686 -95.6756 36° Northeast 483 556 37,000  Level Fort Worth Center
Thu 11:24:10 AM 35.1789 -95.4711 38° Northeast 485 558 37,000  Level Kansas City Center
Thu 11:25:12 AM 35.2858 -95.3700 38° Northeast 486 559 37,000  Level Kansas City Center
Thu 11:26:08 AM 35.3900 -95.2775 36° Northeast 479 551 37,000  Level Memphis Center
Thu 11:27:08 AM 35.4964 -95.1717 39° Northeast 479 551 37,000  Level Memphis Center
Thu 11:28:08 AM 35.6044 -95.0706 37° Northeast 479 551 37,000  Level Memphis Center
Thu 11:29:08 AM 35.7086 -94.9667 39° Northeast 479 551 37,000  Level Memphis Center
Thu 11:30:08 AM 35.8144 -94.8650 38° Northeast 479 551 37,000  Level Memphis Center
Thu 11:31:08 AM 35.9161 -94.7628 39° Northeast 479 551 37,000  Level Memphis Center
Thu 11:32:08 AM 36.0217 -94.6633 37° Northeast 479 551 37,000  Level Memphis Center
Thu 11:33:08 AM 36.1233 -94.5608 39° Northeast 479 551 37,000  Level Memphis Center
Thu 11:34:08 AM 36.2267 -94.4606 38° Northeast 479 551 37,000  Level Memphis Center
Thu 11:36:33 AM 36.4767 -94.2156 38° Northeast 475 547 37,000  Level Kansas City Center
Thu 11:37:35 AM 36.5833 -94.1125 38° Northeast 480 552 37,000  Level Kansas City Center
Thu 11:38:37 AM 36.7072 -93.9881 39° Northeast 477 549 37,000  Level Kansas City Center
Thu 11:39:39 AM 36.8089 -93.8861 39° Northeast 469 540 37,000  Level Kansas City Center
Thu 11:40:41 AM 36.9103 -93.7839 39° Northeast 469 540 37,000  Level Kansas City Center
Thu 11:41:43 AM 37.0119 -93.6825 39° Northeast 467 537 37,000  Level Kansas City Center
Thu 11:42:45 AM 37.1150 -93.5803 38° Northeast 469 540 37,000  Level Kansas City Center
Thu 11:43:47 AM 37.2161 -93.4781 39° Northeast 467 537 37,000  Level Kansas City Center
Thu 11:44:49 AM 37.3164 -93.3733 40° Northeast 472 543 37,000  Level Kansas City Center
Thu 11:45:51 AM 37.4425 -93.2536 37° Northeast 472 543 37,000  Level Kansas City Center
Thu 11:46:53 AM 37.5494 -93.1564 36° Northeast 470 541 37,000  Level Kansas City Center
Thu 11:47:54 AM 37.6569 -93.0569 36° Northeast 477 549 37,000  Level Kansas City Center
Thu 11:48:56 AM 37.7622 -92.9572 37° Northeast 471 542 37,000  Level Kansas City Center
Thu 11:49:58 AM 37.8681 -92.8592 36° Northeast 468 539 37,000  Level Kansas City Center
Thu 11:51:00 AM 37.9742 -92.7600 36° Northeast 467 537 37,000  Level Kansas City Center
Thu 11:52:02 AM 38.0814 -92.6592 36° Northeast 466 536 37,000  Level Kansas City Center
Thu 11:53:04 AM 38.1864 -92.5594 37° Northeast 469 540 37,000  Level Kansas City Center
Thu 11:54:06 AM 38.2933 -92.4603 36° Northeast 466 536 37,000  Level Kansas City Center
Thu 11:55:08 AM 38.3986 -92.3578 37° Northeast 469 540 37,000  Level Kansas City Center
Thu 11:56:10 AM 38.5036 -92.2581 37° Northeast 468 539 37,000  Level Kansas City Center
Thu 11:57:12 AM 38.6283 -92.1375 37° Northeast 466 536 37,000  Level Kansas City Center
Thu 11:58:14 AM 38.7328 -92.0369 37° Northeast 467 537 37,000  Level Kansas City Center
Thu 11:59:16 AM 38.8358 -91.9372 37° Northeast 464 534 37,000  Level Kansas City Center
Thu 12:00:17 PM 38.9400 -91.8364 37° Northeast 465 535 37,000  Level Kansas City Center
Thu 12:01:19 PM 39.0444 -91.7344 37° Northeast 469 540 37,000  Level Kansas City Center
Thu 12:02:21 PM 39.1414 -91.6422 36° Northeast 468 539 37,000 -339 Level Kansas City Center
Thu 12:03:23 PM 39.2681 -91.5189 37° Northeast 471 542 36,300 -823 Descending Kansas City Center
Thu 12:04:25 PM 39.3717 -91.4161 37° Northeast 471 542 35,300 -629 Descending Kansas City Center
Thu 12:05:27 PM 39.4736 -91.3142 38° Northeast 466 536 35,000 -145 Descending Kansas City Center
Thu 12:06:29 PM 39.5758 -91.2142 37° Northeast 462 532 35,000  Level Kansas City Center
Thu 12:07:31 PM 39.6781 -91.1117 38° Northeast 463 533 35,000  Level Kansas City Center
Thu 12:08:33 PM 39.7794 -91.0094 38° Northeast 460 529 35,000  Level Kansas City Center
Thu 12:09:35 PM 39.8836 -90.9069 37° Northeast 456 525 35,000 -49 Level Kansas City Center
Thu 12:10:36 PM 39.9969 -90.8294 28° Northeast 458 527 34,900 -927 Descending Kansas City Center
Thu 12:11:38 PM 40.1294 -90.7353 29° Northeast 452 520 33,100 -1,009 Descending Kansas City Center
Thu 12:12:29 PM 40.2217 -90.6742 27° Northeast 459 528 33,000 -53 Descending Chicago Center
Thu 12:13:31 PM 40.3336 -90.5831 32° Northeast 470 541 33,000  Level Chicago Center
Thu 12:14:33 PM 40.4319 -90.4756 40° Northeast 460 529 33,000  Level Chicago Center
Thu 12:15:35 PM 40.5239 -90.3656 42° Northeast 447 514 33,000 -629 Level Chicago Center
Thu 12:16:37 PM 40.6322 -90.2358 42° Northeast 447 514 31,700 -1,258 Descending Chicago Center
Thu 12:17:39 PM 40.7208 -90.1281 43° Northeast 437 503 30,400 -1,268 Descending Chicago Center
Thu 12:18:40 PM 40.8100 -90.0256 41° Northeast 427 491 29,100 -1,268 Descending Chicago Center
Thu 12:19:42 PM 40.9244 -90.0061 North 414 476 27,800 -1,306 Descending Chicago Center
Thu 12:20:44 PM 41.0472 -89.9836 North 412 474 26,400 -1,355 Descending Chicago Center
Thu 12:21:46 PM 41.1078 -89.8592 57° Northeast 414 476 25,000 -1,161 Descending Chicago Center
Thu 12:22:48 PM 41.1392 -89.7006 75° East 439 505 24,000 -581 Descending Chicago Center
Thu 12:23:50 PM 41.1950 -89.5575 63° Northeast 438 504 23,800 -1,306 Descending Chicago Center
Thu 12:24:52 PM 41.2558 -89.4208 59° Northeast 431 496 21,300 -2,758 Descending Chicago Center
Thu 12:25:54 PM 41.3103 -89.2844 62° Northeast 418 481 18,100 -3,532 Descending Chicago Center
Thu 12:26:56 PM 41.3669 -89.1497 61° Northeast 401 461 14,000 -2,903 Descending Chicago Center
Thu 12:27:58 PM 41.4156 -89.0303 61° Northeast 372 428 12,100 -1,488 Descending Chicago Center
Thu 12:29:01 PM 41.4517 -88.8811 72° East 358 412 10,900 -532 Descending Chicago Center
Thu 12:30:02 PM 41.4978 -88.7803 59° Northeast 324 373 11,000 49 Climbing Chicago Center
Thu 12:31:04 PM 41.5400 -88.6833 60° Northeast 308 354 11,000  Level Chicago Center
Thu 12:32:06 PM 41.5789 -88.5839 62° Northeast 303 349 11,000 -242 Level Chicago Center
Thu 12:33:08 PM 41.6086 -88.4803 69° East 301 346 10,500 -919 Descending Chicago Center
Thu 12:34:10 PM 41.6378 -88.3775 69° East 298 343 9,100 -1,304 Descending Chicago Center
Thu 12:35:49 PM 41.6833 -88.2167 69° East 245 282 7,000 -1,016 Descending Chicago TRACON
Thu 12:36:14 PM 41.7083 -88.1894 39° Northeast 255 293 7,000 -1,172 Level Chicago Center
Thu 12:37:16 PM 41.7556 -88.1322 42° Northeast 236 272 5,300 -968 Descending Chicago Center
Thu 12:38:18 PM 41.8022 -88.0747 43° Northeast 231 266 5,000 -774 Descending Chicago Center
Thu 12:39:20 PM 41.8436 -88.0300 39° Northeast 213 245 3,700 -1,210 Descending Chicago Center
Thu 12:40:22 PM 41.8831 -87.9831 42° Northeast 198 228 2,500 -1,065 Descending Chicago Center
Thu 12:41:24 PM 41.9236 -87.9347 42° Northeast 177 204 1,500 -889 Descending Chicago Center
Thu 12:41:43 PM 41.9333 -87.9333 North 123 142 1,300 -632 Descending Chicago TRACON

Login

Don't have an account? Register now (free) for customized features, flight alerts, and more!